sensor_id;sensor_type;location;lat;lon;timestamp;P1;durP1;ratioP1;P2;durP2;ratioP2
35550;SDS011;21655;46.056;13.616;2023-03-01T00:01:23;18.73;;;10.02;;
35550;SDS011;21655;46.056;13.616;2023-03-01T00:03:50;17.50;;;9.35;;
35550;SDS011;21655;46.056;13.616;2023-03-01T00:06:17;19.77;;;9.85;;
35550;SDS011;21655;46.056;13.616;2023-03-01T00:08:43;16.77;;;9.90;;
35550;SDS011;21655;46.056;13.616;2023-03-01T00:11:12;17.15;;;9.82;;
35550;SDS011;21655;46.056;13.616;2023-03-01T00:13:49;18.13;;;10.15;;
35550;SDS011;21655;46.056;13.616;2023-03-01T00:16:18;25.65;;;10.82;;
35550;SDS011;21655;46.056;13.616;2023-03-01T00:18:48;20.77;;;11.35;;
35550;SDS011;21655;46.056;13.616;2023-03-01T00:21:14;22.33;;;11.38;;
35550;SDS011;21655;46.056;13.616;2023-03-01T00:23:40;18.75;;;10.63;;
35550;SDS011;21655;46.056;13.616;2023-03-01T00:26:06;18.95;;;10.40;;
35550;SDS011;21655;46.056;13.616;2023-03-01T00:28:34;17.05;;;10.57;;
35550;SDS011;21655;46.056;13.616;2023-03-01T00:31:07;21.30;;;10.80;;
35550;SDS011;21655;46.056;13.616;2023-03-01T00:33:38;21.73;;;10.88;;
35550;SDS011;21655;46.056;13.616;2023-03-01T00:36:03;20.02;;;10.68;;
35550;SDS011;21655;46.056;13.616;2023-03-01T00:38:29;18.77;;;10.50;;
35550;SDS011;21655;46.056;13.616;2023-03-01T00:40:55;19.88;;;10.15;;
35550;SDS011;21655;46.056;13.616;2023-03-01T00:43:27;20.55;;;10.90;;
35550;SDS011;21655;46.056;13.616;2023-03-01T00:45:52;14.80;;;9.13;;
35550;SDS011;21655;46.056;13.616;2023-03-01T00:48:18;16.05;;;9.30;;
35550;SDS011;21655;46.056;13.616;2023-03-01T00:50:43;15.77;;;9.13;;
35550;SDS011;21655;46.056;13.616;2023-03-01T00:53:09;16.05;;;9.73;;
35550;SDS011;21655;46.056;13.616;2023-03-01T00:55:35;18.15;;;9.93;;
35550;SDS011;21655;46.056;13.616;2023-03-01T00:58:01;18.63;;;10.25;;
35550;SDS011;21655;46.056;13.616;2023-03-01T01:00:27;15.43;;;9.43;;
35550;SDS011;21655;46.056;13.616;2023-03-01T01:02:53;18.85;;;9.65;;
35550;SDS011;21655;46.056;13.616;2023-03-01T01:05:18;24.17;;;10.23;;
35550;SDS011;21655;46.056;13.616;2023-03-01T01:07:45;18.15;;;8.98;;
35550;SDS011;21655;46.056;13.616;2023-03-01T01:10:11;15.18;;;9.40;;
35550;SDS011;21655;46.056;13.616;2023-03-01T01:12:41;17.90;;;9.32;;
35550;SDS011;21655;46.056;13.616;2023-03-01T01:15:08;15.90;;;9.10;;
35550;SDS011;21655;46.056;13.616;2023-03-01T01:17:37;15.57;;;8.77;;
35550;SDS011;21655;46.056;13.616;2023-03-01T01:20:02;19.27;;;9.32;;
35550;SDS011;21655;46.056;13.616;2023-03-01T01:22:28;15.02;;;8.85;;
35550;SDS011;21655;46.056;13.616;2023-03-01T01:24:54;17.60;;;8.68;;
35550;SDS011;21655;46.056;13.616;2023-03-01T01:27:19;13.52;;;8.05;;
35550;SDS011;21655;46.056;13.616;2023-03-01T01:29:44;12.98;;;7.82;;
35550;SDS011;21655;46.056;13.616;2023-03-01T01:32:10;14.30;;;7.85;;
35550;SDS011;21655;46.056;13.616;2023-03-01T01:34:35;15.88;;;8.43;;
35550;SDS011;21655;46.056;13.616;2023-03-01T01:37:01;12.85;;;7.60;;
35550;SDS011;21655;46.056;13.616;2023-03-01T01:39:27;16.88;;;8.25;;
35550;SDS011;21655;46.056;13.616;2023-03-01T01:41:53;15.50;;;8.55;;
35550;SDS011;21655;46.056;13.616;2023-03-01T01:46:49;14.80;;;8.07;;
35550;SDS011;21655;46.056;13.616;2023-03-01T01:49:27;14.25;;;8.02;;
35550;SDS011;21655;46.056;13.616;2023-03-01T01:52:22;20.55;;;8.50;;
35550;SDS011;21655;46.056;13.616;2023-03-01T01:57:37;18.10;;;8.15;;
35550;SDS011;21655;46.056;13.616;2023-03-01T02:00:10;15.02;;;7.95;;
35550;SDS011;21655;46.056;13.616;2023-03-01T02:02:41;14.30;;;8.15;;
35550;SDS011;21655;46.056;13.616;2023-03-01T02:05:14;16.02;;;8.02;;
35550;SDS011;21655;46.056;13.616;2023-03-01T02:07:51;15.77;;;9.02;;
35550;SDS011;21655;46.056;13.616;2023-03-01T02:10:17;18.80;;;9.48;;
35550;SDS011;21655;46.056;13.616;2023-03-01T02:12:43;19.15;;;8.55;;
35550;SDS011;21655;46.056;13.616;2023-03-01T02:15:09;18.63;;;9.45;;
35550;SDS011;21655;46.056;13.616;2023-03-01T02:17:35;15.45;;;8.32;;
35550;SDS011;21655;46.056;13.616;2023-03-01T02:22:41;15.05;;;8.80;;
35550;SDS011;21655;46.056;13.616;2023-03-01T02:25:19;18.95;;;8.32;;
35550;SDS011;21655;46.056;13.616;2023-03-01T02:30:41;17.17;;;8.98;;
35550;SDS011;21655;46.056;13.616;2023-03-01T02:33:28;15.40;;;8.27;;
35550;SDS011;21655;46.056;13.616;2023-03-01T02:35:58;17.67;;;8.23;;
35550;SDS011;21655;46.056;13.616;2023-03-01T02:38:26;15.68;;;8.73;;
35550;SDS011;21655;46.056;13.616;2023-03-01T02:40:53;18.55;;;8.80;;
35550;SDS011;21655;46.056;13.616;2023-03-01T02:43:22;14.57;;;7.53;;
35550;SDS011;21655;46.056;13.616;2023-03-01T02:45:52;18.90;;;8.95;;
35550;SDS011;21655;46.056;13.616;2023-03-01T02:48:22;15.88;;;9.02;;
35550;SDS011;21655;46.056;13.616;2023-03-01T02:50:59;16.35;;;8.68;;
35550;SDS011;21655;46.056;13.616;2023-03-01T02:56:14;19.60;;;9.35;;
35550;SDS011;21655;46.056;13.616;2023-03-01T02:58:41;17.58;;;8.65;;
35550;SDS011;21655;46.056;13.616;2023-03-01T03:01:10;14.43;;;8.80;;
35550;SDS011;21655;46.056;13.616;2023-03-01T03:03:35;16.08;;;8.77;;
35550;SDS011;21655;46.056;13.616;2023-03-01T03:06:01;17.15;;;9.43;;
35550;SDS011;21655;46.056;13.616;2023-03-01T03:08:26;14.80;;;8.27;;
35550;SDS011;21655;46.056;13.616;2023-03-01T03:10:52;20.73;;;9.07;;
35550;SDS011;21655;46.056;13.616;2023-03-01T03:13:18;15.55;;;9.15;;
35550;SDS011;21655;46.056;13.616;2023-03-01T03:15:44;15.05;;;8.68;;
35550;SDS011;21655;46.056;13.616;2023-03-01T03:18:11;17.05;;;8.82;;
35550;SDS011;21655;46.056;13.616;2023-03-01T03:20:39;17.48;;;8.95;;
35550;SDS011;21655;46.056;13.616;2023-03-01T03:23:06;15.52;;;8.68;;
35550;SDS011;21655;46.056;13.616;2023-03-01T03:25:31;18.70;;;10.10;;
35550;SDS011;21655;46.056;13.616;2023-03-01T03:27:57;17.20;;;8.45;;
35550;SDS011;21655;46.056;13.616;2023-03-01T03:30:29;16.35;;;9.30;;
35550;SDS011;21655;46.056;13.616;2023-03-01T03:32:57;13.10;;;7.57;;
35550;SDS011;21655;46.056;13.616;2023-03-01T03:35:25;16.73;;;9.25;;
35550;SDS011;21655;46.056;13.616;2023-03-01T03:38:03;15.60;;;8.80;;
35550;SDS011;21655;46.056;13.616;2023-03-01T03:40:35;17.15;;;9.27;;
35550;SDS011;21655;46.056;13.616;2023-03-01T03:43:03;17.27;;;9.00;;
35550;SDS011;21655;46.056;13.616;2023-03-01T03:45:30;16.88;;;8.52;;
35550;SDS011;21655;46.056;13.616;2023-03-01T03:47:58;15.60;;;9.32;;
35550;SDS011;21655;46.056;13.616;2023-03-01T03:50:25;17.20;;;9.13;;
35550;SDS011;21655;46.056;13.616;2023-03-01T03:52:50;14.43;;;9.15;;
35550;SDS011;21655;46.056;13.616;2023-03-01T03:55:16;16.45;;;9.23;;
35550;SDS011;21655;46.056;13.616;2023-03-01T03:57:44;19.45;;;8.50;;
35550;SDS011;21655;46.056;13.616;2023-03-01T04:00:16;15.18;;;8.80;;
35550;SDS011;21655;46.056;13.616;2023-03-01T04:02:43;15.52;;;9.02;;
35550;SDS011;21655;46.056;13.616;2023-03-01T04:05:10;14.00;;;8.20;;
35550;SDS011;21655;46.056;13.616;2023-03-01T04:07:38;18.23;;;9.23;;
35550;SDS011;21655;46.056;13.616;2023-03-01T04:10:04;18.63;;;9.40;;
35550;SDS011;21655;46.056;13.616;2023-03-01T04:12:32;19.33;;;9.75;;
35550;SDS011;21655;46.056;13.616;2023-03-01T04:14:59;17.52;;;9.60;;
35550;SDS011;21655;46.056;13.616;2023-03-01T04:17:37;17.38;;;9.27;;
35550;SDS011;21655;46.056;13.616;2023-03-01T04:20:08;18.60;;;9.38;;
35550;SDS011;21655;46.056;13.616;2023-03-01T04:22:50;18.30;;;9.07;;
35550;SDS011;21655;46.056;13.616;2023-03-01T04:25:17;15.77;;;8.75;;
35550;SDS011;21655;46.056;13.616;2023-03-01T04:27:43;20.02;;;8.93;;
35550;SDS011;21655;46.056;13.616;2023-03-01T04:30:09;21.92;;;9.18;;
35550;SDS011;21655;46.056;13.616;2023-03-01T04:32:35;15.25;;;9.38;;
35550;SDS011;21655;46.056;13.616;2023-03-01T04:35:00;14.95;;;8.32;;
35550;SDS011;21655;46.056;13.616;2023-03-01T04:37:26;16.77;;;9.55;;
35550;SDS011;21655;46.056;13.616;2023-03-01T04:39:52;16.35;;;9.10;;
35550;SDS011;21655;46.056;13.616;2023-03-01T04:42:17;18.30;;;9.25;;
35550;SDS011;21655;46.056;13.616;2023-03-01T04:44:43;18.08;;;9.10;;
35550;SDS011;21655;46.056;13.616;2023-03-01T04:47:09;19.75;;;9.57;;
35550;SDS011;21655;46.056;13.616;2023-03-01T04:49:35;16.08;;;8.95;;
35550;SDS011;21655;46.056;13.616;2023-03-01T04:52:01;17.83;;;9.38;;
35550;SDS011;21655;46.056;13.616;2023-03-01T04:54:31;18.83;;;10.02;;
35550;SDS011;21655;46.056;13.616;2023-03-01T04:56:57;18.23;;;9.95;;
35550;SDS011;21655;46.056;13.616;2023-03-01T04:59:23;18.10;;;8.95;;
35550;SDS011;21655;46.056;13.616;2023-03-01T05:01:52;17.83;;;10.32;;
35550;SDS011;21655;46.056;13.616;2023-03-01T05:04:23;20.30;;;9.88;;
35550;SDS011;21655;46.056;13.616;2023-03-01T05:06:49;16.95;;;9.65;;
35550;SDS011;21655;46.056;13.616;2023-03-01T05:09:15;16.35;;;9.45;;
35550;SDS011;21655;46.056;13.616;2023-03-01T05:11:41;16.02;;;10.05;;
35550;SDS011;21655;46.056;13.616;2023-03-01T05:14:07;16.70;;;9.65;;
35550;SDS011;21655;46.056;13.616;2023-03-01T05:16:34;19.02;;;9.65;;
35550;SDS011;21655;46.056;13.616;2023-03-01T05:19:01;16.63;;;9.90;;
35550;SDS011;21655;46.056;13.616;2023-03-01T05:21:36;19.80;;;10.27;;
35550;SDS011;21655;46.056;13.616;2023-03-01T05:24:23;20.73;;;10.30;;
35550;SDS011;21655;46.056;13.616;2023-03-01T05:26:49;19.83;;;9.50;;
35550;SDS011;21655;46.056;13.616;2023-03-01T05:29:17;18.83;;;9.98;;
35550;SDS011;21655;46.056;13.616;2023-03-01T05:31:53;21.08;;;10.98;;
35550;SDS011;21655;46.056;13.616;2023-03-01T05:34:27;17.92;;;10.32;;
35550;SDS011;21655;46.056;13.616;2023-03-01T05:36:57;24.65;;;11.73;;
35550;SDS011;21655;46.056;13.616;2023-03-01T05:39:24;21.70;;;10.95;;
35550;SDS011;21655;46.056;13.616;2023-03-01T05:41:51;20.63;;;10.02;;
35550;SDS011;21655;46.056;13.616;2023-03-01T05:44:20;17.73;;;9.90;;
35550;SDS011;21655;46.056;13.616;2023-03-01T05:46:46;22.00;;;10.80;;
35550;SDS011;21655;46.056;13.616;2023-03-01T05:49:13;20.52;;;9.73;;
35550;SDS011;21655;46.056;13.616;2023-03-01T05:51:42;21.48;;;10.80;;
35550;SDS011;21655;46.056;13.616;2023-03-01T05:54:12;21.77;;;10.32;;
35550;SDS011;21655;46.056;13.616;2023-03-01T05:56:37;28.92;;;11.95;;
35550;SDS011;21655;46.056;13.616;2023-03-01T05:59:03;15.95;;;9.48;;
35550;SDS011;21655;46.056;13.616;2023-03-01T06:01:33;20.75;;;10.63;;
35550;SDS011;21655;46.056;13.616;2023-03-01T06:04:00;21.65;;;11.23;;
35550;SDS011;21655;46.056;13.616;2023-03-01T06:06:26;25.77;;;11.77;;
35550;SDS011;21655;46.056;13.616;2023-03-01T06:08:52;20.45;;;10.80;;
35550;SDS011;21655;46.056;13.616;2023-03-01T06:11:18;18.40;;;11.05;;
35550;SDS011;21655;46.056;13.616;2023-03-01T06:13:45;34.88;;;11.25;;
35550;SDS011;21655;46.056;13.616;2023-03-01T06:16:11;20.27;;;10.13;;
35550;SDS011;21655;46.056;13.616;2023-03-01T06:18:37;17.98;;;10.32;;
35550;SDS011;21655;46.056;13.616;2023-03-01T06:21:04;27.50;;;11.52;;
35550;SDS011;21655;46.056;13.616;2023-03-01T06:23:30;25.02;;;11.10;;
35550;SDS011;21655;46.056;13.616;2023-03-01T06:25:56;23.48;;;10.30;;
35550;SDS011;21655;46.056;13.616;2023-03-01T06:28:21;22.02;;;10.93;;
35550;SDS011;21655;46.056;13.616;2023-03-01T06:30:47;17.70;;;8.30;;
35550;SDS011;21655;46.056;13.616;2023-03-01T06:33:13;18.80;;;10.43;;
35550;SDS011;21655;46.056;13.616;2023-03-01T06:35:38;24.67;;;10.98;;
35550;SDS011;21655;46.056;13.616;2023-03-01T06:38:04;17.70;;;9.10;;
35550;SDS011;21655;46.056;13.616;2023-03-01T06:40:31;29.23;;;10.90;;
35550;SDS011;21655;46.056;13.616;2023-03-01T06:42:57;18.73;;;9.93;;
35550;SDS011;21655;46.056;13.616;2023-03-01T06:45:23;28.45;;;11.18;;
35550;SDS011;21655;46.056;13.616;2023-03-01T06:47:49;20.92;;;10.25;;
35550;SDS011;21655;46.056;13.616;2023-03-01T06:50:15;20.88;;;10.13;;
35550;SDS011;21655;46.056;13.616;2023-03-01T06:52:42;26.20;;;10.98;;
35550;SDS011;21655;46.056;13.616;2023-03-01T06:55:10;18.52;;;10.13;;
35550;SDS011;21655;46.056;13.616;2023-03-01T06:57:36;19.50;;;10.50;;
35550;SDS011;21655;46.056;13.616;2023-03-01T07:00:03;19.65;;;10.15;;
35550;SDS011;21655;46.056;13.616;2023-03-01T07:02:29;31.48;;;10.50;;
35550;SDS011;21655;46.056;13.616;2023-03-01T07:04:54;19.08;;;11.02;;
35550;SDS011;21655;46.056;13.616;2023-03-01T07:07:20;17.48;;;10.43;;
35550;SDS011;21655;46.056;13.616;2023-03-01T07:09:46;20.60;;;10.77;;
35550;SDS011;21655;46.056;13.616;2023-03-01T07:12:13;20.50;;;10.88;;
35550;SDS011;21655;46.056;13.616;2023-03-01T07:14:38;18.80;;;11.25;;
35550;SDS011;21655;46.056;13.616;2023-03-01T07:17:04;24.35;;;11.13;;
35550;SDS011;21655;46.056;13.616;2023-03-01T07:19:29;27.58;;;11.15;;
35550;SDS011;21655;46.056;13.616;2023-03-01T07:21:55;23.13;;;12.15;;
35550;SDS011;21655;46.056;13.616;2023-03-01T07:24:21;16.80;;;9.35;;
35550;SDS011;21655;46.056;13.616;2023-03-01T07:26:50;24.85;;;11.65;;
35550;SDS011;21655;46.056;13.616;2023-03-01T07:29:16;20.58;;;10.23;;
35550;SDS011;21655;46.056;13.616;2023-03-01T07:31:42;21.00;;;10.95;;
35550;SDS011;21655;46.056;13.616;2023-03-01T07:34:08;20.60;;;12.05;;
35550;SDS011;21655;46.056;13.616;2023-03-01T07:36:33;26.95;;;11.43;;
35550;SDS011;21655;46.056;13.616;2023-03-01T07:38:59;24.73;;;10.98;;
35550;SDS011;21655;46.056;13.616;2023-03-01T07:41:27;22.88;;;11.18;;
35550;SDS011;21655;46.056;13.616;2023-03-01T07:43:52;21.30;;;10.82;;
35550;SDS011;21655;46.056;13.616;2023-03-01T07:46:18;23.98;;;11.63;;
35550;SDS011;21655;46.056;13.616;2023-03-01T07:48:44;20.33;;;11.13;;
35550;SDS011;21655;46.056;13.616;2023-03-01T07:51:09;21.77;;;11.32;;
35550;SDS011;21655;46.056;13.616;2023-03-01T07:53:35;17.88;;;10.13;;
35550;SDS011;21655;46.056;13.616;2023-03-01T07:56:05;19.95;;;11.05;;
35550;SDS011;21655;46.056;13.616;2023-03-01T07:58:38;19.45;;;11.23;;
35550;SDS011;21655;46.056;13.616;2023-03-01T08:01:05;24.63;;;11.63;;
35550;SDS011;21655;46.056;13.616;2023-03-01T08:03:32;17.20;;;10.70;;
35550;SDS011;21655;46.056;13.616;2023-03-01T08:06:02;20.08;;;11.35;;
35550;SDS011;21655;46.056;13.616;2023-03-01T08:08:30;18.70;;;9.85;;
35550;SDS011;21655;46.056;13.616;2023-03-01T08:10:56;19.20;;;10.20;;
35550;SDS011;21655;46.056;13.616;2023-03-01T08:13:22;16.23;;;10.32;;
35550;SDS011;21655;46.056;13.616;2023-03-01T08:15:48;16.70;;;9.18;;
35550;SDS011;21655;46.056;13.616;2023-03-01T08:18:15;24.52;;;9.38;;
35550;SDS011;21655;46.056;13.616;2023-03-01T08:20:41;18.75;;;10.38;;
35550;SDS011;21655;46.056;13.616;2023-03-01T08:23:06;15.20;;;9.48;;
35550;SDS011;21655;46.056;13.616;2023-03-01T08:25:32;19.45;;;10.60;;
35550;SDS011;21655;46.056;13.616;2023-03-01T08:27:57;20.35;;;9.85;;
35550;SDS011;21655;46.056;13.616;2023-03-01T08:30:23;16.77;;;9.80;;
35550;SDS011;21655;46.056;13.616;2023-03-01T08:32:49;19.88;;;9.55;;
35550;SDS011;21655;46.056;13.616;2023-03-01T08:35:15;16.10;;;8.43;;
35550;SDS011;21655;46.056;13.616;2023-03-01T08:37:40;21.60;;;8.77;;
35550;SDS011;21655;46.056;13.616;2023-03-01T08:40:06;18.13;;;9.52;;
35550;SDS011;21655;46.056;13.616;2023-03-01T08:42:32;14.40;;;7.78;;
35550;SDS011;21655;46.056;13.616;2023-03-01T08:44:58;18.00;;;7.63;;
35550;SDS011;21655;46.056;13.616;2023-03-01T08:47:23;18.60;;;7.85;;
35550;SDS011;21655;46.056;13.616;2023-03-01T08:49:49;15.65;;;8.50;;
35550;SDS011;21655;46.056;13.616;2023-03-01T08:52:15;18.48;;;7.63;;
35550;SDS011;21655;46.056;13.616;2023-03-01T08:54:41;15.48;;;7.38;;
35550;SDS011;21655;46.056;13.616;2023-03-01T08:57:06;10.43;;;6.65;;
35550;SDS011;21655;46.056;13.616;2023-03-01T08:59:32;17.85;;;7.88;;
35550;SDS011;21655;46.056;13.616;2023-03-01T09:02:02;17.80;;;6.97;;
35550;SDS011;21655;46.056;13.616;2023-03-01T09:04:28;12.35;;;7.07;;
35550;SDS011;21655;46.056;13.616;2023-03-01T09:06:54;12.77;;;6.85;;
35550;SDS011;21655;46.056;13.616;2023-03-01T09:09:19;13.32;;;6.53;;
35550;SDS011;21655;46.056;13.616;2023-03-01T09:11:45;15.88;;;6.57;;
35550;SDS011;21655;46.056;13.616;2023-03-01T09:14:11;14.43;;;6.75;;
35550;SDS011;21655;46.056;13.616;2023-03-01T09:16:37;21.20;;;7.15;;
35550;SDS011;21655;46.056;13.616;2023-03-01T09:19:04;17.50;;;6.97;;
35550;SDS011;21655;46.056;13.616;2023-03-01T09:21:30;11.30;;;6.70;;
35550;SDS011;21655;46.056;13.616;2023-03-01T09:23:56;9.70;;;5.25;;
35550;SDS011;21655;46.056;13.616;2023-03-01T09:26:23;12.77;;;5.70;;
35550;SDS011;21655;46.056;13.616;2023-03-01T09:28:50;14.95;;;6.78;;
35550;SDS011;21655;46.056;13.616;2023-03-01T09:31:19;19.33;;;6.35;;
35550;SDS011;21655;46.056;13.616;2023-03-01T09:33:46;10.48;;;5.88;;
35550;SDS011;21655;46.056;13.616;2023-03-01T09:36:14;12.85;;;5.70;;
35550;SDS011;21655;46.056;13.616;2023-03-01T09:38:41;14.88;;;5.28;;
35550;SDS011;21655;46.056;13.616;2023-03-01T09:41:14;13.75;;;6.43;;
35550;SDS011;21655;46.056;13.616;2023-03-01T09:44:07;12.52;;;5.50;;
35550;SDS011;21655;46.056;13.616;2023-03-01T09:46:51;11.35;;;4.75;;
35550;SDS011;21655;46.056;13.616;2023-03-01T09:49:18;12.65;;;5.60;;
35550;SDS011;21655;46.056;13.616;2023-03-01T09:51:54;15.15;;;5.55;;
35550;SDS011;21655;46.056;13.616;2023-03-01T09:54:26;16.55;;;6.30;;
35550;SDS011;21655;46.056;13.616;2023-03-01T10:10:44;14.60;;;5.15;;
35550;SDS011;21655;46.056;13.616;2023-03-01T10:13:17;12.75;;;6.00;;
35550;SDS011;21655;46.056;13.616;2023-03-01T10:16:03;9.40;;;4.80;;
35550;SDS011;21655;46.056;13.616;2023-03-01T10:18:35;11.95;;;5.47;;
35550;SDS011;21655;46.056;13.616;2023-03-01T10:21:08;9.95;;;5.78;;
35550;SDS011;21655;46.056;13.616;2023-03-01T10:23:40;19.10;;;6.20;;
35550;SDS011;21655;46.056;13.616;2023-03-01T10:31:25;18.00;;;5.75;;
35550;SDS011;21655;46.056;13.616;2023-03-01T10:34:02;16.33;;;5.63;;
35550;SDS011;21655;46.056;13.616;2023-03-01T10:36:32;15.73;;;6.30;;
35550;SDS011;21655;46.056;13.616;2023-03-01T10:38:59;21.80;;;6.32;;
35550;SDS011;21655;46.056;13.616;2023-03-01T10:41:35;13.40;;;5.90;;
35550;SDS011;21655;46.056;13.616;2023-03-01T10:44:34;15.38;;;6.38;;
35550;SDS011;21655;46.056;13.616;2023-03-01T10:47:00;13.98;;;6.35;;
35550;SDS011;21655;46.056;13.616;2023-03-01T10:49:26;12.20;;;5.93;;
35550;SDS011;21655;46.056;13.616;2023-03-01T10:51:52;11.13;;;6.05;;
35550;SDS011;21655;46.056;13.616;2023-03-01T10:54:19;17.88;;;5.45;;
35550;SDS011;21655;46.056;13.616;2023-03-01T10:56:54;17.08;;;6.10;;
35550;SDS011;21655;46.056;13.616;2023-03-01T11:04:59;22.55;;;5.95;;
35550;SDS011;21655;46.056;13.616;2023-03-01T11:10:30;8.43;;;4.68;;
35550;SDS011;21655;46.056;13.616;2023-03-01T11:13:16;11.32;;;5.25;;
35550;SDS011;21655;46.056;13.616;2023-03-01T11:15:43;11.57;;;4.93;;
35550;SDS011;21655;46.056;13.616;2023-03-01T11:18:23;11.20;;;5.30;;
35550;SDS011;21655;46.056;13.616;2023-03-01T11:20:50;30.60;;;7.30;;
35550;SDS011;21655;46.056;13.616;2023-03-01T11:23:18;12.43;;;5.28;;
35550;SDS011;21655;46.056;13.616;2023-03-01T11:25:49;9.65;;;5.70;;
35550;SDS011;21655;46.056;13.616;2023-03-01T11:28:19;11.27;;;5.45;;
35550;SDS011;21655;46.056;13.616;2023-03-01T11:33:20;10.38;;;5.80;;
35550;SDS011;21655;46.056;13.616;2023-03-01T11:35:53;10.68;;;5.70;;
35550;SDS011;21655;46.056;13.616;2023-03-01T11:38:26;12.55;;;5.35;;
35550;SDS011;21655;46.056;13.616;2023-03-01T11:40:55;10.13;;;5.85;;
35550;SDS011;21655;46.056;13.616;2023-03-01T11:43:35;44.88;;;7.78;;
35550;SDS011;21655;46.056;13.616;2023-03-01T11:46:34;11.30;;;5.32;;
35550;SDS011;21655;46.056;13.616;2023-03-01T11:49:34;12.55;;;5.93;;
35550;SDS011;21655;46.056;13.616;2023-03-01T12:09:02;11.60;;;5.05;;
35550;SDS011;21655;46.056;13.616;2023-03-01T12:11:43;9.95;;;5.00;;
35550;SDS011;21655;46.056;13.616;2023-03-01T12:14:47;11.30;;;4.90;;
35550;SDS011;21655;46.056;13.616;2023-03-01T12:20:31;8.10;;;5.05;;
35550;SDS011;21655;46.056;13.616;2023-03-01T12:25:45;10.65;;;4.57;;
35550;SDS011;21655;46.056;13.616;2023-03-01T12:28:19;9.27;;;4.90;;
35550;SDS011;21655;46.056;13.616;2023-03-01T12:31:20;10.05;;;4.22;;
35550;SDS011;21655;46.056;13.616;2023-03-01T12:47:39;8.10;;;4.40;;
35550;SDS011;21655;46.056;13.616;2023-03-01T12:50:26;6.60;;;4.25;;
35550;SDS011;21655;46.056;13.616;2023-03-01T12:53:01;9.90;;;4.68;;
35550;SDS011;21655;46.056;13.616;2023-03-01T12:55:33;9.73;;;4.22;;
35550;SDS011;21655;46.056;13.616;2023-03-01T13:06:32;7.95;;;4.03;;
35550;SDS011;21655;46.056;13.616;2023-03-01T13:09:13;9.13;;;4.50;;
35550;SDS011;21655;46.056;13.616;2023-03-01T13:11:48;10.70;;;4.40;;
35550;SDS011;21655;46.056;13.616;2023-03-01T13:16:46;13.32;;;4.95;;
35550;SDS011;21655;46.056;13.616;2023-03-01T13:19:20;8.55;;;4.03;;
35550;SDS011;21655;46.056;13.616;2023-03-01T13:21:48;9.90;;;4.07;;
35550;SDS011;21655;46.056;13.616;2023-03-01T13:29:45;8.45;;;4.60;;
35550;SDS011;21655;46.056;13.616;2023-03-01T13:32:35;6.65;;;4.00;;
35550;SDS011;21655;46.056;13.616;2023-03-01T13:35:40;10.05;;;4.40;;
35550;SDS011;21655;46.056;13.616;2023-03-01T13:43:38;6.07;;;3.60;;
35550;SDS011;21655;46.056;13.616;2023-03-01T13:46:10;7.10;;;4.00;;
35550;SDS011;21655;46.056;13.616;2023-03-01T13:48:44;9.55;;;3.85;;
35550;SDS011;21655;46.056;13.616;2023-03-01T13:51:12;11.70;;;4.15;;
35550;SDS011;21655;46.056;13.616;2023-03-01T13:53:41;8.80;;;4.00;;
35550;SDS011;21655;46.056;13.616;2023-03-01T13:56:20;9.07;;;4.13;;
35550;SDS011;21655;46.056;13.616;2023-03-01T13:58:54;9.10;;;3.95;;
35550;SDS011;21655;46.056;13.616;2023-03-01T14:01:42;8.30;;;4.07;;
35550;SDS011;21655;46.056;13.616;2023-03-01T14:07:18;6.97;;;4.10;;
35550;SDS011;21655;46.056;13.616;2023-03-01T14:09:51;8.97;;;4.00;;
35550;SDS011;21655;46.056;13.616;2023-03-01T14:15:48;9.13;;;4.35;;
35550;SDS011;21655;46.056;13.616;2023-03-01T14:20:27;10.43;;;3.97;;
35550;SDS011;21655;46.056;13.616;2023-03-01T14:22:59;6.68;;;3.60;;
35550;SDS011;21655;46.056;13.616;2023-03-01T14:25:28;13.90;;;4.30;;
35550;SDS011;21655;46.056;13.616;2023-03-01T14:27:57;5.30;;;3.38;;
35550;SDS011;21655;46.056;13.616;2023-03-01T14:30:53;8.23;;;3.88;;
35550;SDS011;21655;46.056;13.616;2023-03-01T14:35:52;18.52;;;4.00;;
35550;SDS011;21655;46.056;13.616;2023-03-01T14:38:22;9.60;;;3.38;;
35550;SDS011;21655;46.056;13.616;2023-03-01T14:40:54;7.47;;;3.53;;
35550;SDS011;21655;46.056;13.616;2023-03-01T14:43:24;12.93;;;4.00;;
35550;SDS011;21655;46.056;13.616;2023-03-01T14:45:53;5.65;;;3.42;;
35550;SDS011;21655;46.056;13.616;2023-03-01T14:48:18;10.07;;;3.53;;
35550;SDS011;21655;46.056;13.616;2023-03-01T14:50:45;9.05;;;3.75;;
35550;SDS011;21655;46.056;13.616;2023-03-01T14:53:44;5.65;;;3.47;;
35550;SDS011;21655;46.056;13.616;2023-03-01T14:56:02;8.48;;;3.28;;
35550;SDS011;21655;46.056;13.616;2023-03-01T14:58:28;9.18;;;3.55;;
35550;SDS011;21655;46.056;13.616;2023-03-01T15:00:57;5.95;;;3.58;;
35550;SDS011;21655;46.056;13.616;2023-03-01T15:03:31;7.32;;;3.75;;
35550;SDS011;21655;46.056;13.616;2023-03-01T15:06:02;9.00;;;3.38;;
35550;SDS011;21655;46.056;13.616;2023-03-01T15:08:29;8.50;;;5.43;;
35550;SDS011;21655;46.056;13.616;2023-03-01T15:10:59;6.28;;;3.65;;
35550;SDS011;21655;46.056;13.616;2023-03-01T15:13:28;9.07;;;3.20;;
35550;SDS011;21655;46.056;13.616;2023-03-01T15:16:03;9.27;;;3.72;;
35550;SDS011;21655;46.056;13.616;2023-03-01T15:18:32;8.52;;;3.15;;
35550;SDS011;21655;46.056;13.616;2023-03-01T15:21:05;6.43;;;3.38;;
35550;SDS011;21655;46.056;13.616;2023-03-01T15:23:33;8.40;;;3.67;;
35550;SDS011;21655;46.056;13.616;2023-03-01T15:25:59;15.48;;;3.53;;
35550;SDS011;21655;46.056;13.616;2023-03-01T15:28:29;7.13;;;3.60;;
35550;SDS011;21655;46.056;13.616;2023-03-01T15:31:00;5.53;;;3.25;;
35550;SDS011;21655;46.056;13.616;2023-03-01T15:36:30;8.27;;;4.03;;
35550;SDS011;21655;46.056;13.616;2023-03-01T15:38:55;12.40;;;3.83;;
35550;SDS011;21655;46.056;13.616;2023-03-01T15:41:24;6.00;;;3.40;;
35550;SDS011;21655;46.056;13.616;2023-03-01T15:43:53;8.75;;;3.58;;
35550;SDS011;21655;46.056;13.616;2023-03-01T15:46:31;7.95;;;3.67;;
35550;SDS011;21655;46.056;13.616;2023-03-01T15:48:59;7.75;;;4.00;;
35550;SDS011;21655;46.056;13.616;2023-03-01T15:51:37;5.93;;;3.63;;
35550;SDS011;21655;46.056;13.616;2023-03-01T15:54:06;10.15;;;4.13;;
35550;SDS011;21655;46.056;13.616;2023-03-01T15:56:43;12.63;;;4.25;;
35550;SDS011;21655;46.056;13.616;2023-03-01T15:59:09;10.52;;;4.68;;
35550;SDS011;21655;46.056;13.616;2023-03-01T16:01:38;7.97;;;4.13;;
35550;SDS011;21655;46.056;13.616;2023-03-01T16:04:03;8.32;;;4.35;;
35550;SDS011;21655;46.056;13.616;2023-03-01T16:06:29;13.05;;;4.32;;
35550;SDS011;21655;46.056;13.616;2023-03-01T16:08:55;8.27;;;4.22;;
35550;SDS011;21655;46.056;13.616;2023-03-01T16:11:21;9.18;;;4.32;;
35550;SDS011;21655;46.056;13.616;2023-03-01T16:13:47;12.90;;;4.75;;
35550;SDS011;21655;46.056;13.616;2023-03-01T16:16:13;9.57;;;4.38;;
35550;SDS011;21655;46.056;13.616;2023-03-01T16:18:41;7.15;;;4.20;;
35550;SDS011;21655;46.056;13.616;2023-03-01T16:21:11;9.60;;;4.78;;
35550;SDS011;21655;46.056;13.616;2023-03-01T16:23:43;8.30;;;4.60;;
35550;SDS011;21655;46.056;13.616;2023-03-01T16:26:09;7.82;;;4.00;;
35550;SDS011;21655;46.056;13.616;2023-03-01T16:28:35;11.05;;;4.00;;
35550;SDS011;21655;46.056;13.616;2023-03-01T16:31:00;6.32;;;4.07;;